Time;durP1;ratioP1;P1;durP2;ratioP2;P2;SDS_P1;SDS_P2;PMS_P1;PMS_P2;Temp;Humidity;BMP_temperature;BMP_pressure;BME280_temperature;BME280_humidity;BME280_pressure;Samples;Min_cycle;Max_cycle;Signal;HPM_P1;HPM_P2
2023/02/06 00:01:27;;;;;;;12.30;3.75;;;;;;;-6.87;78.28;94594.38;5105241;28;20032;-78
2023/02/06 00:03:53;;;;;;;8.43;4.28;;;;;;;-6.81;78.22;94590.25;5104240;28;20020;-78
2023/02/06 00:06:18;;;;;;;8.32;3.38;;;;;;;-6.82;78.16;94593.81;5105140;28;20023;-78
2023/02/06 00:08:44;;;;;;;8.88;3.33;;;;;;;-6.94;77.88;94597.91;5105196;28;20214;-78
2023/02/06 00:11:12;;;;;;;8.32;3.85;;;;;;;-6.90;78.17;94596.53;5105202;28;20036;-78
2023/02/06 00:13:38;;;;;;;10.45;3.42;;;;;;;-6.88;78.26;94604.94;5104966;28;20027;-78
2023/02/06 00:16:04;;;;;;;8.82;3.63;;;;;;;-6.86;77.91;94605.53;5105133;28;20028;-78
2023/02/06 00:18:30;;;;;;;9.63;2.83;;;;;;;-6.82;77.91;94608.56;5104946;28;20266;-78
2023/02/06 00:20:55;;;;;;;6.78;3.05;;;;;;;-6.94;77.73;94609.09;5105006;28;20027;-78
2023/02/06 00:23:21;;;;;;;6.15;2.80;;;;;;;-6.90;77.67;94612.09;5105026;28;20020;-78
2023/02/06 00:25:46;;;;;;;7.10;3.53;;;;;;;-6.95;77.76;94604.88;5104735;28;20322;-78
2023/02/06 00:28:12;;;;;;;7.78;3.60;;;;;;;-6.89;77.84;94608.53;5104696;28;20024;-78
2023/02/06 00:30:38;;;;;;;6.35;2.92;;;;;;;-6.94;77.46;94614.28;5104874;28;20069;-78
2023/02/06 00:33:03;;;;;;;7.30;3.78;;;;;;;-6.90;77.66;94619.88;5104918;28;20095;-78
2023/02/06 00:35:29;;;;;;;9.70;3.83;;;;;;;-6.87;77.81;94609.13;5104648;28;20031;-78
2023/02/06 00:37:55;;;;;;;6.03;3.25;;;;;;;-6.87;77.99;94625.47;5104553;28;20031;-79
2023/02/06 00:40:21;;;;;;;6.70;3.08;;;;;;;-6.86;77.87;94611.53;5104643;28;20246;-79
2023/02/06 00:42:46;;;;;;;6.30;3.10;;;;;;;-6.82;77.89;94621.53;5104529;28;20043;-79
2023/02/06 00:45:12;;;;;;;8.35;3.38;;;;;;;-6.85;77.88;94622.72;5104598;28;20031;-79
2023/02/06 00:47:37;;;;;;;8.35;3.55;;;;;;;-6.91;78.23;94626.06;5104218;28;20103;-79
2023/02/06 00:50:03;;;;;;;6.60;3.15;;;;;;;-6.92;78.19;94632.22;5104406;28;20046;-79
2023/02/06 00:52:29;;;;;;;10.00;4.15;;;;;;;-6.95;78.16;94638.56;5104176;28;20027;-79
2023/02/06 00:54:54;;;;;;;7.82;3.38;;;;;;;-6.96;78.40;94636.16;5104368;28;20203;-79
2023/02/06 00:57:20;;;;;;;7.13;3.30;;;;;;;-6.99;78.48;94636.53;5104243;28;20024;-79
2023/02/06 00:59:45;;;;;;;7.90;4.00;;;;;;;-7.00;78.51;94630.56;5104198;28;20028;-79
2023/02/06 01:02:11;;;;;;;10.70;3.47;;;;;;;-7.01;78.87;94628.94;5104123;28;20256;-80
2023/02/06 01:04:36;;;;;;;7.32;3.45;;;;;;;-7.00;78.78;94632.34;5103882;28;20028;-80
2023/02/06 01:07:02;;;;;;;5.20;2.80;;;;;;;-7.03;78.59;94637.91;5104302;28;20027;-80
2023/02/06 01:09:27;;;;;;;9.98;3.85;;;;;;;-7.04;78.23;94639.69;5103867;28;20353;-79
2023/02/06 01:11:53;;;;;;;6.72;3.10;;;;;;;-7.02;78.23;94636.91;5104036;28;20031;-80
2023/02/06 01:14:18;;;;;;;8.00;2.97;;;;;;;-7.04;77.89;94644.06;5103910;28;20028;-79
2023/02/06 01:16:44;;;;;;;5.57;2.67;;;;;;;-7.02;77.88;94644.66;5103820;28;20031;-79
2023/02/06 01:19:09;;;;;;;6.07;2.40;;;;;;;-6.98;77.51;94644.13;5103682;28;20027;-80
2023/02/06 01:21:35;;;;;;;9.55;3.42;;;;;;;-6.97;77.30;94656.09;5104096;28;20031;-80
2023/02/06 01:24:01;;;;;;;14.65;3.22;;;;;;;-6.98;76.91;94649.31;5102441;28;20322;-80
2023/02/06 01:26:26;;;;;;;4.65;2.60;;;;;;;-6.93;77.30;94651.34;5103873;28;20035;-79
2023/02/06 01:28:53;;;;;;;6.60;3.53;;;;;;;-6.90;77.50;94648.38;5103701;28;20345;-79
2023/02/06 01:31:25;;;;;;;5.50;2.25;;;;;;;-6.90;77.24;94645.78;5103578;28;20022;-80
2023/02/06 01:33:51;;;;;;;6.22;2.35;;;;;;;-6.84;76.71;94654.63;5103556;28;20081;-79
2023/02/06 01:36:18;;;;;;;4.88;2.35;;;;;;;-6.84;76.27;94642.44;5103601;28;20016;-79
2023/02/06 01:38:44;;;;;;;6.03;2.65;;;;;;;-6.90;75.91;94640.59;5103568;28;20012;-79
2023/02/06 01:41:11;;;;;;;3.95;2.30;;;;;;;-6.83;75.97;94646.66;5103497;28;20024;-78
2023/02/06 01:43:40;;;;;;;6.55;2.20;;;;;;;-6.88;75.01;94647.22;5103559;28;20016;-78
2023/02/06 01:46:07;;;;;;;5.75;2.63;;;;;;;-6.97;74.57;94647.53;5103311;28;20077;-79
2023/02/06 01:48:43;;;;;;;4.13;2.15;;;;;;;-6.97;74.21;94656.09;5103339;28;20036;-79
2023/02/06 01:51:14;;;;;;;5.22;2.65;;;;;;;-6.91;73.74;94670.91;5103278;28;20030;-78
2023/02/06 01:53:43;;;;;;;3.53;2.10;;;;;;;-6.85;74.36;94661.59;5103356;28;20234;-80
2023/02/06 01:56:09;;;;;;;5.03;2.30;;;;;;;-6.81;74.45;94670.59;5103208;28;20226;-80
2023/02/06 01:58:39;;;;;;;4.45;1.98;;;;;;;-6.74;73.56;94665.47;5103441;28;20199;-80
2023/02/06 02:01:05;;;;;;;5.45;2.67;;;;;;;-6.75;73.21;94656.09;5103507;28;20031;-80
2023/02/06 02:03:34;;;;;;;5.20;1.90;;;;;;;-6.72;73.26;94659.09;5103182;28;20055;-80
2023/02/06 02:06:05;;;;;;;5.80;2.63;;;;;;;-6.61;73.11;94662.19;5103266;28;20016;-80
2023/02/06 02:08:36;;;;;;;6.07;2.67;;;;;;;-6.60;72.48;94651.63;5103040;28;20028;-79
2023/02/06 02:11:04;;;;;;;6.13;2.80;;;;;;;-6.50;72.87;94662.47;5103064;28;20035;-78
2023/02/06 02:13:31;;;;;;;7.82;3.03;;;;;;;-6.44;72.19;94660.94;5102745;28;20047;-78
2023/02/06 02:16:11;;;;;;;8.90;2.58;;;;;;;-6.32;72.28;94661.22;5103149;28;20020;-78
2023/02/06 02:19:05;;;;;;;6.20;3.10;;;;;;;-6.22;72.15;94668.69;5103241;28;20016;-78
2023/02/06 02:21:40;;;;;;;4.30;2.53;;;;;;;-6.12;72.27;94664.75;5103176;28;20047;-78
2023/02/06 02:24:08;;;;;;;5.47;2.90;;;;;;;-5.98;72.33;94664.81;5103250;28;20040;-78
2023/02/06 02:26:55;;;;;;;4.32;2.58;;;;;;;-5.86;71.94;94664.09;5102962;28;20028;-78
2023/02/06 02:29:42;;;;;;;7.95;2.75;;;;;;;-5.71;71.80;94670.97;5102902;28;20141;-77
2023/02/06 02:32:33;;;;;;;8.75;2.65;;;;;;;-5.64;70.46;94676.97;5102901;28;20065;-77
2023/02/06 02:35:02;;;;;;;3.75;2.25;;;;;;;-5.63;69.48;94678.59;5102992;28;20031;-78
2023/02/06 02:38:15;;;;;;;6.03;2.67;;;;;;;-5.61;69.87;94676.59;5102698;28;20035;-78
2023/02/06 02:40:56;;;;;;;8.38;2.85;;;;;;;-5.57;70.26;94683.00;5100607;28;20028;-79
2023/02/06 02:43:37;;;;;;;6.38;3.05;;;;;;;-5.50;69.57;94676.03;5102943;28;20077;-78
2023/02/06 02:46:43;;;;;;;5.80;2.70;;;;;;;-5.42;68.72;94680.28;5102909;28;20059;-79
2023/02/06 02:49:15;;;;;;;7.85;3.75;;;;;;;-5.42;66.29;94671.69;5102716;28;20047;-79
2023/02/06 02:51:42;;;;;;;6.28;2.78;;;;;;;-5.49;65.17;94675.06;5102756;28;20024;-79
2023/02/06 02:54:08;;;;;;;7.00;3.58;;;;;;;-5.48;65.74;94673.25;5102765;28;20032;-79
2023/02/06 02:56:34;;;;;;;7.82;3.13;;;;;;;-5.46;66.22;94682.44;5102759;28;20061;-78
2023/02/06 02:59:04;;;;;;;6.78;2.95;;;;;;;-5.42;66.81;94688.06;5102479;28;20012;-79
2023/02/06 03:01:37;;;;;;;6.28;2.78;;;;;;;-5.40;66.85;94693.06;5102718;28;20188;-79
2023/02/06 03:04:13;;;;;;;7.88;3.28;;;;;;;-5.35;66.67;94685.50;5102857;28;20213;-79
2023/02/06 03:07:03;;;;;;;8.18;3.30;;;;;;;-5.33;66.58;94696.50;5102539;28;20039;-78
2023/02/06 03:09:40;;;;;;;7.18;3.10;;;;;;;-5.32;66.28;94695.50;5102393;28;20091;-78
2023/02/06 03:12:16;;;;;;;7.47;4.00;;;;;;;-5.33;65.80;94696.50;5102615;28;20032;-79
2023/02/06 03:14:54;;;;;;;7.80;3.38;;;;;;;-5.27;65.63;94698.31;5102473;28;20306;-78
2023/02/06 03:17:30;;;;;;;7.50;3.45;;;;;;;-5.33;65.17;94688.69;5102594;28;20257;-79
2023/02/06 03:19:58;;;;;;;8.80;4.38;;;;;;;-5.31;65.31;94691.91;5102374;28;20214;-78
2023/02/06 03:22:25;;;;;;;8.25;3.72;;;;;;;-5.28;65.47;94684.53;5102420;28;20024;-78
2023/02/06 03:24:52;;;;;;;7.75;3.55;;;;;;;-5.22;65.45;94687.34;5104932;28;20016;-78
2023/02/06 03:27:19;;;;;;;7.32;3.65;;;;;;;-5.18;65.67;94693.75;5105923;28;20020;-78
2023/02/06 03:29:47;;;;;;;5.82;3.00;;;;;;;-5.16;65.40;94689.97;5106027;28;20132;-78
2023/02/06 03:32:22;;;;;;;8.07;3.65;;;;;;;-5.12;64.89;94691.19;5104574;28;20341;-78
2023/02/06 03:35:03;;;;;;;7.20;3.45;;;;;;;-5.08;64.71;94689.00;5104703;28;20027;-78
2023/02/06 03:37:30;;;;;;;7.95;3.80;;;;;;;-5.08;63.96;94686.41;5105683;28;20027;-78
2023/02/06 03:39:58;;;;;;;8.77;3.63;;;;;;;-5.05;64.05;94705.00;5105620;28;20020;-78
2023/02/06 03:42:25;;;;;;;7.53;3.20;;;;;;;-5.01;63.54;94697.59;5105841;28;20035;-79
2023/02/06 03:45:01;;;;;;;9.00;3.88;;;;;;;-5.00;63.26;94694.03;5105645;28;20269;-79
2023/02/06 03:47:28;;;;;;;7.53;3.38;;;;;;;-4.96;62.19;94702.25;5105488;28;20040;-79
2023/02/06 03:49:58;;;;;;;6.28;3.28;;;;;;;-4.96;62.73;94697.03;5105461;28;20072;-78
2023/02/06 03:52:28;;;;;;;5.68;3.05;;;;;;;-4.96;61.81;94689.25;5105669;28;20016;-78
2023/02/06 03:55:01;;;;;;;10.80;3.55;;;;;;;-4.93;61.25;94687.03;5105408;28;20015;-77
2023/02/06 03:57:27;;;;;;;7.10;2.92;;;;;;;-4.91;60.77;94692.84;5105261;28;20043;-77
2023/02/06 03:59:53;;;;;;;7.25;3.45;;;;;;;-4.97;60.75;94690.22;5105262;28;20020;-78
2023/02/06 04:02:20;;;;;;;7.85;3.67;;;;;;;-4.97;61.19;94691.03;5105397;28;20317;-78
2023/02/06 04:04:46;;;;;;;6.93;3.25;;;;;;;-4.94;61.69;94693.25;5105436;28;20109;-78
2023/02/06 04:07:25;;;;;;;5.93;3.58;;;;;;;-4.92;61.50;94699.03;5105393;28;20271;-78
2023/02/06 04:09:52;;;;;;;6.10;3.28;;;;;;;-4.88;61.77;94702.06;5105087;28;20332;-77
2023/02/06 04:12:19;;;;;;;8.10;3.05;;;;;;;-4.87;61.03;94701.84;5105155;28;20031;-77
2023/02/06 04:14:45;;;;;;;4.35;2.70;;;;;;;-4.86;61.26;94697.47;5105009;28;20024;-77
2023/02/06 04:17:12;;;;;;;5.93;2.85;;;;;;;-4.85;60.66;94702.44;5103851;28;20024;-77
2023/02/06 04:19:37;;;;;;;9.48;3.78;;;;;;;-4.86;60.90;94692.25;5105024;28;20053;-78
2023/02/06 04:22:04;;;;;;;5.60;3.05;;;;;;;-4.85;61.22;94699.06;5105050;28;20020;-78
2023/02/06 04:24:30;;;;;;;11.90;3.45;;;;;;;-4.85;60.96;94701.66;5104832;28;20024;-78
2023/02/06 04:26:55;;;;;;;7.65;3.50;;;;;;;-4.86;60.18;94705.25;5104944;28;20051;-78
2023/02/06 04:29:21;;;;;;;7.53;4.38;;;;;;;-4.89;60.88;94700.44;5104736;28;20027;-77
2023/02/06 04:31:46;;;;;;;10.65;5.00;;;;;;;-4.89;61.02;94710.84;5104683;28;20027;-78
2023/02/06 04:34:12;;;;;;;13.35;4.88;;;;;;;-4.93;60.83;94705.22;5104399;28;20024;-78
2023/02/06 04:36:38;;;;;;;11.18;5.15;;;;;;;-4.88;61.27;94710.66;5104318;28;20024;-78
2023/02/06 04:39:04;;;;;;;9.20;3.53;;;;;;;-4.88;60.18;94705.47;5104755;28;20075;-78
2023/02/06 04:41:30;;;;;;;8.27;3.75;;;;;;;-4.92;59.90;94709.44;5104584;28;20030;-78
2023/02/06 04:43:56;;;;;;;7.47;3.78;;;;;;;-4.91;59.81;94705.84;5104540;28;20217;-78
2023/02/06 04:46:21;;;;;;;7.10;3.80;;;;;;;-4.88;59.93;94712.47;5104164;28;20074;-78
2023/02/06 04:48:46;;;;;;;9.95;5.30;;;;;;;-4.85;60.45;94706.84;5104229;28;20048;-78
2023/02/06 04:51:12;;;;;;;16.27;5.10;;;;;;;-4.84;60.86;94729.28;5104334;28;20024;-78
2023/02/06 04:53:38;;;;;;;8.98;4.40;;;;;;;-4.82;60.68;94722.09;5104201;28;20024;-78
2023/02/06 04:56:09;;;;;;;6.18;3.35;;;;;;;-4.85;60.30;94731.06;5104494;28;20031;-78
2023/02/06 04:58:36;;;;;;;9.10;4.25;;;;;;;-4.93;60.15;94735.63;5104018;28;20016;-78
2023/02/06 05:01:01;;;;;;;10.60;3.90;;;;;;;-5.04;60.56;94724.81;5104030;28;20020;-78
2023/02/06 05:03:28;;;;;;;8.13;3.35;;;;;;;-5.16;60.76;94725.56;5103999;28;20028;-77
2023/02/06 05:05:55;;;;;;;6.85;3.88;;;;;;;-5.28;61.74;94730.50;5103995;28;20207;-78
2023/02/06 05:08:21;;;;;;;8.95;3.72;;;;;;;-5.39;62.27;94726.66;5103951;28;20137;-78
2023/02/06 05:10:46;;;;;;;8.77;3.90;;;;;;;-5.60;62.67;94732.72;5103954;28;20019;-78
2023/02/06 05:13:12;;;;;;;7.72;3.90;;;;;;;-5.79;63.99;94736.03;5104023;28;20031;-79
2023/02/06 05:15:38;;;;;;;8.75;3.30;;;;;;;-5.90;64.16;94732.97;5103931;28;20069;-79
2023/02/06 05:18:05;;;;;;;7.28;3.45;;;;;;;-6.02;64.46;94741.47;5104201;28;20020;-79
2023/02/06 05:20:30;;;;;;;8.30;3.47;;;;;;;-6.15;64.61;94745.56;5103592;28;20019;-80
2023/02/06 05:22:56;;;;;;;9.05;4.10;;;;;;;-6.20;64.79;94752.34;5103695;28;20137;-79
2023/02/06 05:25:22;;;;;;;11.10;3.90;;;;;;;-6.34;64.87;94749.63;5103614;28;20043;-78
2023/02/06 05:27:47;;;;;;;8.88;4.05;;;;;;;-6.40;64.91;94755.56;5103759;28;20038;-78
2023/02/06 05:30:13;;;;;;;7.93;3.90;;;;;;;-6.55;65.60;94760.00;5103723;28;20019;-77
2023/02/06 05:32:39;;;;;;;8.02;4.05;;;;;;;-6.67;66.11;94768.25;5103443;28;20023;-76
2023/02/06 05:35:05;;;;;;;9.15;4.10;;;;;;;-6.79;65.74;94767.16;5103642;28;20016;-76
2023/02/06 05:37:30;;;;;;;13.15;5.53;;;;;;;-6.85;65.99;94767.88;5103221;28;20260;-76
2023/02/06 05:39:59;;;;;;;9.00;4.40;;;;;;;-6.88;66.09;94769.06;5103517;28;20421;-76
2023/02/06 05:42:24;;;;;;;11.25;4.90;;;;;;;-6.97;65.94;94774.53;5103563;28;20027;-78
2023/02/06 05:44:50;;;;;;;9.73;4.20;;;;;;;-7.06;66.41;94777.22;5103597;28;20214;-76
2023/02/06 05:47:15;;;;;;;17.38;5.30;;;;;;;-7.03;66.22;94781.22;5100882;28;20040;-76
2023/02/06 05:49:42;;;;;;;10.50;5.30;;;;;;;-7.08;66.53;94780.97;5103140;28;20218;-77
2023/02/06 05:52:09;;;;;;;11.80;4.82;;;;;;;-7.07;67.05;94778.19;5103256;28;20301;-77
2023/02/06 05:54:35;;;;;;;11.82;4.43;;;;;;;-7.07;67.20;94774.78;5103450;28;20020;-78
2023/02/06 05:57:00;;;;;;;9.07;4.22;;;;;;;-7.06;66.54;94784.19;5103359;28;20028;-78
2023/02/06 05:59:26;;;;;;;6.30;3.28;;;;;;;-7.07;66.64;94790.34;5102942;28;20310;-78
2023/02/06 06:01:51;;;;;;;8.90;4.88;;;;;;;-7.04;67.23;94791.75;5103140;28;20028;-78
2023/02/06 06:04:17;;;;;;;7.90;4.40;;;;;;;-6.96;67.29;94791.66;5102941;28;20020;-78
2023/02/06 06:06:42;;;;;;;11.05;4.50;;;;;;;-6.90;67.19;94796.13;5102808;28;20023;-78
2023/02/06 06:09:08;;;;;;;9.80;4.03;;;;;;;-6.85;66.31;94791.22;5101747;28;20044;-79
2023/02/06 06:11:33;;;;;;;9.73;4.13;;;;;;;-6.81;66.13;94792.44;5102970;28;20031;-79
2023/02/06 06:13:59;;;;;;;9.23;4.15;;;;;;;-6.78;65.38;94794.66;5102788;28;20023;-78
2023/02/06 06:16:25;;;;;;;9.02;3.85;;;;;;;-6.76;65.71;94795.28;5102801;28;20256;-79
2023/02/06 06:18:50;;;;;;;8.30;4.10;;;;;;;-6.74;65.05;94800.28;5102850;28;20020;-79
2023/02/06 06:21:16;;;;;;;8.52;3.90;;;;;;;-6.70;64.89;94804.91;5102608;28;20024;-79
2023/02/06 06:23:41;;;;;;;8.48;3.67;;;;;;;-6.72;64.09;94808.69;5103041;28;20024;-79
2023/02/06 06:26:07;;;;;;;7.85;3.45;;;;;;;-6.74;64.23;94803.69;5103093;28;20069;-78
2023/02/06 06:28:34;;;;;;;6.55;4.18;;;;;;;-6.70;63.68;94799.72;5103019;28;20024;-79
2023/02/06 06:31:05;;;;;;;10.48;4.07;;;;;;;-6.64;64.40;94794.81;5102965;28;20089;-78
2023/02/06 06:33:31;;;;;;;8.57;3.83;;;;;;;-6.59;64.46;94787.28;5102965;28;20024;-78
2023/02/06 06:35:56;;;;;;;9.13;3.83;;;;;;;-6.51;64.13;94794.97;5102929;28;20237;-78
2023/02/06 06:38:22;;;;;;;6.55;3.80;;;;;;;-6.48;63.74;94799.78;5102886;28;20028;-78
2023/02/06 06:40:47;;;;;;;7.50;3.65;;;;;;;-6.43;62.27;94807.81;5102722;28;20024;-77
2023/02/06 06:43:13;;;;;;;9.70;3.88;;;;;;;-6.38;63.00;94808.06;5101570;28;20028;-78
2023/02/06 06:45:38;;;;;;;8.63;4.38;;;;;;;-6.28;61.75;94808.56;5102659;28;20031;-78
2023/02/06 06:48:04;;;;;;;11.05;4.70;;;;;;;-6.19;62.89;94811.81;5102876;28;20032;-77
2023/02/06 06:50:29;;;;;;;12.73;4.50;;;;;;;-6.06;63.05;94818.94;5102700;28;20028;-78
2023/02/06 06:52:55;;;;;;;10.05;4.32;;;;;;;-5.94;61.18;94814.81;5102733;28;20028;-76
2023/02/06 06:55:20;;;;;;;7.60;3.53;;;;;;;-5.82;60.35;94819.47;5102464;28;20077;-77
2023/02/06 06:57:48;;;;;;;6.60;3.30;;;;;;;-5.71;59.95;94817.19;5103432;28;20035;-80
2023/02/06 07:00:15;;;;;;;7.07;3.13;;;;;;;-5.58;58.69;94821.66;5106567;28;20052;-80
2023/02/06 07:02:41;;;;;;;7.53;3.00;;;;;;;-5.48;58.31;94816.13;5106494;28;20027;-80
2023/02/06 07:05:06;;;;;;;6.28;2.75;;;;;;;-5.39;56.31;94824.59;5106437;28;20024;-80
2023/02/06 07:07:32;;;;;;;5.70;2.72;;;;;;;-5.37;55.80;94820.00;5106307;28;20020;-80
2023/02/06 07:09:58;;;;;;;6.95;3.20;;;;;;;-5.48;57.06;94824.72;5106207;28;20031;-80
2023/02/06 07:12:25;;;;;;;5.97;2.67;;;;;;;-5.26;57.58;94830.66;5106327;28;20031;-79
2023/02/06 07:14:50;;;;;;;6.65;2.88;;;;;;;-5.08;58.41;94837.19;5106103;28;20318;-79
2023/02/06 07:17:16;;;;;;;5.00;2.50;;;;;;;-4.85;57.86;94842.88;5105871;28;20027;-80
2023/02/06 07:19:46;;;;;;;9.25;3.47;;;;;;;-4.64;56.55;94849.81;5105897;28;20083;-79
2023/02/06 07:22:12;;;;;;;5.15;2.40;;;;;;;-4.56;55.04;94853.22;5106333;28;20020;-80
2023/02/06 07:24:38;;;;;;;7.32;3.08;;;;;;;-4.55;53.52;94847.03;5106189;28;20250;-79
2023/02/06 07:27:03;;;;;;;7.40;3.42;;;;;;;-4.59;53.41;94846.59;5106168;28;20024;-80
2023/02/06 07:29:29;;;;;;;8.65;3.42;;;;;;;-4.61;54.01;94838.19;5105759;28;20055;-77
2023/02/06 07:31:54;;;;;;;6.30;3.30;;;;;;;-4.65;54.07;94842.97;5105649;28;20023;-81
2023/02/06 07:34:20;;;;;;;8.18;3.50;;;;;;;-4.58;53.75;94853.44;5105744;28;20325;-80
2023/02/06 07:36:46;;;;;;;7.68;3.22;;;;;;;-4.67;53.06;94851.97;5105857;28;20058;-76
2023/02/06 07:39:11;;;;;;;6.60;3.30;;;;;;;-4.71;54.37;94861.97;5106033;28;20008;-77
2023/02/06 07:41:37;;;;;;;9.43;3.83;;;;;;;-4.76;53.80;94855.72;5105690;28;20301;-77
2023/02/06 07:44:05;;;;;;;10.82;4.03;;;;;;;-4.80;53.98;94851.91;5105790;28;20042;-77
2023/02/06 07:46:32;;;;;;;5.38;3.17;;;;;;;-4.82;53.90;94854.72;5105554;28;20272;-77
2023/02/06 07:48:57;;;;;;;7.75;3.35;;;;;;;-4.80;54.23;94851.91;5105211;28;20061;-77
2023/02/06 07:51:23;;;;;;;6.85;3.72;;;;;;;-4.80;55.58;94859.72;5105526;28;20043;-78
2023/02/06 07:53:49;;;;;;;9.75;4.25;;;;;;;-4.90;54.88;94860.88;5105633;28;20066;-77
2023/02/06 07:56:17;;;;;;;10.13;4.28;;;;;;;-4.91;55.39;94858.47;5105472;28;20024;-79
2023/02/06 07:58:42;;;;;;;8.20;3.75;;;;;;;-4.86;55.03;94863.91;5105413;28;20201;-77
2023/02/06 08:01:08;;;;;;;8.73;4.28;;;;;;;-4.81;55.68;94864.13;5105149;28;20032;-77
2023/02/06 08:03:34;;;;;;;11.63;4.78;;;;;;;-4.70;55.48;94868.78;5105330;28;20032;-76
2023/02/06 08:06:00;;;;;;;9.88;4.45;;;;;;;-4.63;55.48;94861.78;5104099;28;20758;-76
2023/02/06 08:08:25;;;;;;;10.90;4.60;;;;;;;-4.44;55.95;94869.88;5105173;28;20027;-76
2023/02/06 08:10:51;;;;;;;10.60;4.15;;;;;;;-4.18;54.94;94863.16;5104357;28;20027;-74
2023/02/06 08:13:16;;;;;;;7.60;3.40;;;;;;;-4.12;53.43;94870.19;5105042;28;20047;-75
2023/02/06 08:16:06;;;;;;;8.27;4.05;;;;;;;-4.03;53.12;94871.59;5104877;28;20027;-78
2023/02/06 08:18:32;;;;;;;6.20;2.78;;;;;;;-3.91;52.68;94864.81;5099817;28;20035;-76
2023/02/06 08:21:06;;;;;;;7.13;3.80;;;;;;;-3.79;51.45;94865.00;5103717;28;20103;-76
2023/02/06 08:23:32;;;;;;;8.13;3.42;;;;;;;-3.67;52.00;94860.81;5105123;28;20024;-75
2023/02/06 08:26:24;;;;;;;8.10;3.80;;;;;;;-3.46;51.85;94859.84;5104679;28;20055;-76
2023/02/06 08:28:50;;;;;;;;;;;;;;;-3.48;51.86;94858.41;5101266;28;20043;-75
2023/02/06 08:31:16;;;;;;;7.70;3.60;;;;;;;-3.59;53.76;94862.44;5103433;28;19961;-78
2023/02/06 08:33:42;;;;;;;12.38;4.40;;;;;;;-3.45;52.70;94868.44;5104406;28;20028;-78
2023/02/06 08:36:08;;;;;;;9.95;3.90;;;;;;;-3.46;51.56;94866.81;5104692;28;20125;-77
2023/02/06 08:38:34;;;;;;;11.68;4.68;;;;;;;-3.41;50.58;94861.03;5104461;28;20055;-78
2023/02/06 08:41:00;;;;;;;9.73;3.90;;;;;;;-3.61;51.38;94869.66;5104494;28;20031;-83
2023/02/06 08:43:25;;;;;;;8.45;3.67;;;;;;;-3.58;51.13;94871.03;5104311;28;20314;-80
2023/02/06 08:45:54;;;;;;;7.78;3.92;;;;;;;-3.61;51.07;94872.25;5104210;28;20103;-79
2023/02/06 08:48:20;;;;;;;8.43;4.03;;;;;;;-3.63;51.22;94880.25;5104370;28;20028;-82
2023/02/06 08:50:46;;;;;;;8.15;4.10;;;;;;;-3.88;52.17;94887.84;5104344;28;20073;-77
2023/02/06 08:53:11;;;;;;;13.90;4.45;;;;;;;-3.76;52.76;94876.88;5104253;28;20058;-77
2023/02/06 08:55:37;;;;;;;8.10;3.92;;;;;;;-3.63;52.05;94882.06;5104278;28;20031;-76
2023/02/06 08:58:03;;;;;;;8.30;4.45;;;;;;;-3.50;53.42;94887.31;5104688;28;20020;-82
2023/02/06 09:00:29;;;;;;;8.15;4.60;;;;;;;-3.29;52.45;94880.28;5104465;28;20024;-82
2023/02/06 09:02:54;;;;;;;11.25;4.55;;;;;;;-3.20;51.86;94876.44;5104757;28;20512;-81
2023/02/06 09:05:20;;;;;;;10.07;5.28;;;;;;;-3.00;53.37;94880.84;5104513;28;20047;-83
2023/02/06 09:07:46;;;;;;;9.85;4.72;;;;;;;-2.84;53.60;94881.22;5102847;28;20027;-82
2023/02/06 09:10:12;;;;;;;9.77;4.63;;;;;;;-2.64;54.25;94875.16;5104307;28;20043;-84
2023/02/06 09:12:38;;;;;;;8.32;4.85;;;;;;;-2.67;52.30;94881.56;5104209;28;20218;-83
2023/02/06 09:15:04;;;;;;;12.45;4.85;;;;;;;-2.56;51.58;94885.34;5104332;28;20025;-84
2023/02/06 09:17:32;;;;;;;9.65;4.63;;;;;;;-2.40;52.54;94886.72;5104129;28;20024;-85
2023/02/06 09:19:59;;;;;;;8.98;4.47;;;;;;;-2.22;53.03;94879.00;5102651;28;20035;-84
2023/02/06 09:22:24;;;;;;;10.15;3.67;;;;;;;-2.06;53.61;94875.09;5103729;28;20024;-84
2023/02/06 09:24:50;;;;;;;8.13;4.00;;;;;;;-1.97;51.58;94875.66;5103730;28;20099;-78
2023/02/06 09:27:16;;;;;;;10.20;3.78;;;;;;;-1.91;50.95;94871.41;5103881;28;20028;-78
2023/02/06 09:29:41;;;;;;;8.20;4.00;;;;;;;-1.86;49.36;94874.97;5103685;28;20192;-85
2023/02/06 09:32:07;;;;;;;8.68;4.15;;;;;;;-1.82;50.05;94873.53;5103687;28;20031;-81
2023/02/06 09:34:32;;;;;;;7.10;3.65;;;;;;;-1.73;50.38;94878.50;5103689;28;20023;-79
2023/02/06 09:37:01;;;;;;;7.93;3.55;;;;;;;-1.61;51.11;94879.44;5103417;28;20035;-83
2023/02/06 09:39:27;;;;;;;6.45;3.65;;;;;;;-1.54;48.93;94874.97;5103449;28;20359;-78
2023/02/06 09:42:04;;;;;;;7.75;3.92;;;;;;;-1.47;49.50;94867.06;5103384;28;20109;-81
2023/02/06 09:44:34;;;;;;;6.75;3.15;;;;;;;-1.48;49.60;94868.91;5103157;28;20195;-82
2023/02/06 09:47:09;;;;;;;14.57;3.35;;;;;;;-1.43;50.18;94869.03;5103075;28;20104;-80
2023/02/06 09:49:43;;;;;;;5.82;3.25;;;;;;;-1.45;48.38;94865.84;5103274;28;20190;-78
2023/02/06 09:52:31;;;;;;;5.57;2.83;;;;;;;-1.44;47.54;94869.28;5103171;28;20048;-75
2023/02/06 09:55:06;;;;;;;6.88;2.75;;;;;;;-1.45;49.59;94865.03;5103278;28;20171;-81
2023/02/06 09:57:47;;;;;;;6.38;3.10;;;;;;;-1.45;49.03;94860.59;5103493;28;20333;-77
2023/02/06 10:00:21;;;;;;;7.72;3.35;;;;;;;-1.35;49.64;94857.53;5103245;28;20274;-79
2023/02/06 10:03:10;;;;;;;7.25;3.42;;;;;;;-1.30;48.86;94864.75;5103021;28;20034;-77
2023/02/06 10:05:51;;;;;;;7.60;3.67;;;;;;;-1.26;49.28;94855.47;5102969;28;20020;-77
2023/02/06 10:08:38;;;;;;;9.45;3.55;;;;;;;-1.23;49.25;94847.97;5102582;28;20081;-77
2023/02/06 10:11:17;;;;;;;6.13;2.88;;;;;;;-1.15;48.43;94841.66;5100645;28;20230;-78
2023/02/06 10:13:58;;;;;;;6.50;3.10;;;;;;;-1.02;48.60;94841.53;5102648;28;20022;-76
2023/02/06 10:16:29;;;;;;;5.00;2.92;;;;;;;-0.90;49.16;94839.00;5102961;28;20077;-76
2023/02/06 10:19:02;;;;;;;5.37;2.63;;;;;;;-0.86;48.26;94839.34;5102133;28;20095;-76
2023/02/06 10:21:41;;;;;;;6.55;3.15;;;;;;;-0.83;49.29;94838.94;5101287;28;20501;-76
2023/02/06 10:24:18;;;;;;;7.18;3.25;;;;;;;-0.88;48.19;94844.00;5101099;28;20043;-76
2023/02/06 10:26:46;;;;;;;7.93;3.38;;;;;;;-0.79;48.50;94829.63;5100751;28;20031;-76
2023/02/06 10:29:24;;;;;;;7.90;2.45;;;;;;;-0.75;49.40;94830.78;5100832;28;20024;-76
2023/02/06 10:32:01;;;;;;;8.60;2.70;;;;;;;-0.69;48.89;94827.31;5101070;28;20090;-77
2023/02/06 10:34:56;;;;;;;6.03;2.80;;;;;;;-0.71;44.92;94826.72;5105502;28;20036;-77
2023/02/06 10:37:28;;;;;;;9.00;2.65;;;;;;;-0.94;43.99;94818.72;5106912;28;20036;-77
2023/02/06 10:40:12;;;;;;;6.15;3.40;;;;;;;-1.19;45.60;94816.94;5106984;28;20141;-77
2023/02/06 10:42:52;;;;;;;13.48;3.33;;;;;;;-1.29;46.98;94809.59;5105858;28;20070;-78
2023/02/06 10:45:36;;;;;;;9.18;3.38;;;;;;;-1.41;46.46;94819.16;5106563;28;20020;-75
2023/02/06 10:48:10;;;;;;;8.60;3.90;;;;;;;-1.45;47.22;94818.78;5106684;28;20077;-76
2023/02/06 10:50:41;;;;;;;8.32;3.50;;;;;;;-1.42;48.24;94810.50;5106601;28;20038;-77
2023/02/06 10:53:17;;;;;;;9.75;3.60;;;;;;;-1.39;47.73;94814.50;5106450;28;20051;-78
2023/02/06 10:55:58;;;;;;;10.80;3.40;;;;;;;-1.58;49.46;94816.28;5105396;28;20016;-77
2023/02/06 10:58:31;;;;;;;9.23;3.50;;;;;;;-1.75;47.56;94812.59;5106418;28;20028;-77
2023/02/06 11:00:58;;;;;;;10.35;3.97;;;;;;;-1.86;48.73;94811.47;5106199;28;20069;-75
2023/02/06 11:03:29;;;;;;;8.20;4.18;;;;;;;-1.98;49.09;94811.34;5106109;28;20031;-75
2023/02/06 11:05:55;;;;;;;9.02;4.30;;;;;;;-1.98;50.06;94811.34;5106455;28;20016;-77
2023/02/06 11:08:23;;;;;;;10.73;3.28;;;;;;;-1.85;49.80;94811.25;5104987;28;20020;-76
2023/02/06 11:10:50;;;;;;;6.63;3.22;;;;;;;-1.86;48.86;94814.06;5105986;28;20020;-76
2023/02/06 11:13:25;;;;;;;7.40;3.20;;;;;;;-1.87;50.75;94818.50;5104771;28;20210;-75
2023/02/06 11:16:13;;;;;;;5.45;2.80;;;;;;;-1.85;50.91;94824.31;5105963;28;20313;-74
2023/02/06 11:18:42;;;;;;;5.95;2.70;;;;;;;-1.85;49.27;94828.75;5106117;28;20012;-75
2023/02/06 11:21:08;;;;;;;7.10;3.65;;;;;;;-1.80;49.27;94828.13;5106211;28;20030;-76
2023/02/06 11:23:34;;;;;;;6.65;3.72;;;;;;;-1.63;49.69;94824.78;5106605;28;20207;-75
2023/02/06 11:26:14;;;;;;;10.32;3.45;;;;;;;-1.56;46.87;94823.91;5106154;28;20050;-75
2023/02/06 11:28:52;;;;;;;7.82;3.70;;;;;;;-1.66;47.54;94822.56;5105659;28;20047;-78
2023/02/06 11:31:35;;;;;;;7.97;3.00;;;;;;;-1.75;49.11;94818.63;5106056;28;20036;-76
2023/02/06 11:34:00;;;;;;;6.80;3.05;;;;;;;-1.66;50.59;94821.78;5105894;28;20365;-76
2023/02/06 11:36:35;;;;;;;8.35;3.17;;;;;;;-1.52;49.37;94820.66;5105755;28;20031;-76
2023/02/06 11:39:19;;;;;;;6.40;3.53;;;;;;;-1.43;47.74;94813.34;5105931;28;20028;-77
2023/02/06 11:42:04;;;;;;;10.30;3.40;;;;;;;-1.36;47.71;94814.09;5105791;28;20052;-77